createdAt,value
2018-12-20T00:03:11.185Z,14.07
2018-12-20T00:08:14.642Z,13.80
2018-12-20T00:13:17.915Z,12.97
2018-12-20T00:18:21.289Z,14.13
2018-12-20T00:23:24.559Z,13.40
2018-12-20T00:28:27.891Z,12.93
2018-12-20T00:33:31.276Z,13.60
2018-12-20T00:38:34.646Z,13.57
2018-12-20T00:43:37.913Z,14.43
2018-12-20T00:48:41.069Z,13.93
2018-12-20T00:53:44.357Z,16.97
2018-12-20T00:58:47.540Z,13.60
2018-12-20T01:03:50.727Z,16.43
2018-12-20T01:08:53.963Z,17.20
2018-12-20T01:13:57.162Z,12.67
2018-12-20T01:19:00.366Z,14.67
2018-12-20T01:24:05.280Z,16.07
2018-12-20T01:29:08.529Z,13.90
2018-12-20T01:34:11.798Z,13.17
2018-12-20T01:39:14.935Z,13.70
2018-12-20T01:44:18.080Z,15.53
2018-12-20T01:49:21.245Z,12.77
2018-12-20T01:54:24.630Z,13.03
2018-12-20T01:59:27.898Z,13.90
2018-12-20T02:04:31.181Z,12.67
2018-12-20T02:09:34.414Z,12.60
2018-12-20T02:14:37.584Z,10.60
2018-12-20T02:19:40.873Z,14.43
2018-12-20T02:24:44.043Z,14.67
2018-12-20T02:29:47.529Z,14.63
2018-12-20T02:34:51.036Z,13.57
2018-12-20T02:39:54.458Z,16.53
2018-12-20T02:44:57.690Z,14.53
2018-12-20T02:50:01.229Z,15.30
2018-12-20T02:55:05.356Z,13.20
2018-12-20T03:00:08.860Z,16.37
2018-12-20T03:05:12.445Z,11.43
2018-12-20T03:10:15.812Z,12.57
2018-12-20T03:15:20.174Z,17.00
2018-12-20T03:20:24.334Z,13.50
2018-12-20T03:25:27.778Z,16.40
2018-12-20T03:30:31.080Z,13.30
2018-12-20T03:35:34.525Z,14.67
2018-12-20T03:40:37.945Z,14.17
2018-12-20T03:45:41.162Z,15.90
2018-12-20T03:50:44.491Z,15.23
2018-12-20T03:55:47.675Z,14.93
2018-12-20T04:00:51.093Z,12.53
2018-12-20T04:05:54.708Z,14.30
2018-12-20T04:10:58.078Z,13.63
2018-12-20T04:16:02.203Z,12.13
2018-12-20T04:21:05.486Z,14.97
2018-12-20T04:26:08.880Z,15.47
2018-12-20T04:31:12.228Z,18.43
2018-12-20T04:36:15.678Z,16.63
2018-12-20T04:41:19.154Z,16.50
2018-12-20T04:46:22.552Z,15.83
2018-12-20T04:51:25.965Z,16.70
2018-12-20T04:56:29.311Z,14.00
2018-12-20T05:01:32.582Z,15.50
2018-12-20T05:06:36.097Z,16.97
2018-12-20T05:11:39.539Z,17.17
2018-12-20T05:16:42.844Z,15.60
2018-12-20T05:21:46.362Z,15.73
2018-12-20T05:26:49.817Z,15.73
2018-12-20T05:31:53.146Z,17.43
2018-12-20T05:36:56.468Z,16.80
2018-12-20T05:42:00.004Z,15.43
2018-12-20T05:47:03.489Z,16.77
2018-12-20T05:52:06.839Z,16.53
2018-12-20T05:57:10.037Z,16.07
2018-12-20T06:02:13.442Z,14.80
2018-12-20T06:07:23.523Z,14.90
2018-12-20T06:12:26.786Z,17.43
2018-12-20T06:17:30.038Z,19.97
2018-12-20T06:22:33.274Z,18.50
2018-12-20T06:27:36.437Z,17.10
2018-12-20T06:32:39.666Z,16.80
2018-12-20T06:37:42.861Z,19.73
2018-12-20T06:42:46.081Z,19.50
2018-12-20T06:47:49.256Z,17.67
2018-12-20T06:52:52.418Z,20.53
2018-12-20T06:57:55.663Z,21.50
2018-12-20T07:02:58.895Z,18.27
2018-12-20T07:08:02.127Z,19.97
2018-12-20T07:13:05.482Z,19.40
2018-12-20T07:18:08.656Z,20.03
2018-12-20T07:23:11.874Z,17.47
2018-12-20T07:28:15.038Z,18.30
2018-12-20T07:33:18.124Z,18.87
2018-12-20T07:38:21.294Z,18.37
2018-12-20T07:43:24.454Z,21.93
2018-12-20T07:48:32.118Z,18.37
2018-12-20T07:53:32.860Z,21.63
2018-12-20T07:58:36.074Z,18.30
2018-12-20T08:03:39.161Z,19.30
2018-12-20T08:08:42.411Z,19.33
2018-12-20T08:13:45.563Z,20.23
2018-12-20T08:18:48.803Z,20.80
2018-12-20T08:23:52.001Z,19.17
2018-12-20T08:28:55.198Z,23.03
2018-12-20T08:33:58.690Z,21.60
2018-12-20T08:39:01.919Z,27.13
2018-12-20T08:44:05.479Z,27.23
2018-12-20T08:49:08.669Z,26.00
2018-12-20T08:54:11.838Z,24.70
2018-12-20T08:59:22.398Z,23.40
2018-12-20T09:04:25.570Z,20.63
2018-12-20T09:09:28.800Z,19.47
2018-12-20T09:14:32.006Z,23.13
2018-12-20T09:19:35.185Z,23.63
2018-12-20T09:24:38.431Z,25.20
2018-12-20T09:29:41.606Z,19.37
2018-12-20T09:34:44.879Z,22.13
2018-12-20T09:39:48.057Z,22.00
2018-12-20T09:44:51.245Z,17.70
2018-12-20T09:49:54.350Z,21.77
2018-12-20T09:54:57.509Z,20.90
2018-12-20T10:00:00.718Z,24.00
2018-12-20T10:05:04.205Z,23.57
2018-12-20T10:10:07.676Z,20.50
2018-12-20T10:15:10.875Z,21.67
2018-12-20T10:20:15.458Z,21.57
2018-12-20T10:25:18.661Z,21.63
2018-12-20T10:30:21.867Z,22.37
2018-12-20T10:35:25.169Z,23.27
2018-12-20T10:40:28.369Z,23.70
2018-12-20T10:45:31.485Z,22.60
2018-12-20T10:50:34.720Z,20.03
2018-12-20T10:55:37.889Z,22.57
2018-12-20T11:01:48.367Z,21.27
2018-12-20T11:06:56.905Z,20.57
2018-12-20T11:28:24.247Z,19.33
2018-12-20T11:33:27.447Z,20.53
2018-12-20T11:38:30.622Z,24.17
2018-12-20T11:43:33.870Z,22.50
2018-12-20T11:48:37.118Z,22.47
2018-12-20T11:53:40.349Z,23.53
2018-12-20T11:58:43.607Z,21.63
2018-12-20T12:03:46.802Z,23.37
2018-12-20T12:08:50.025Z,21.43
2018-12-20T12:13:53.129Z,20.33
2018-12-20T12:18:56.275Z,19.70
2018-12-20T12:23:59.375Z,21.83
2018-12-20T12:29:02.598Z,20.93
2018-12-20T12:50:30.953Z,24.33
2018-12-20T12:55:34.203Z,20.10
2018-12-20T13:00:37.440Z,22.60
2018-12-20T13:05:40.627Z,25.70
2018-12-20T13:10:43.874Z,22.27
2018-12-20T13:15:47.036Z,24.30
2018-12-20T13:20:50.274Z,21.63
2018-12-20T13:25:53.476Z,23.47
2018-12-20T13:47:27.914Z,26.73
2018-12-20T13:52:32.852Z,21.17
2018-12-20T13:57:35.960Z,24.40
2018-12-20T14:02:39.194Z,24.90
2018-12-20T14:07:42.419Z,26.60
2018-12-20T14:12:45.631Z,24.27
2018-12-20T14:17:48.803Z,22.30
2018-12-20T14:22:52.033Z,26.03
2018-12-20T14:27:55.226Z,20.90
2018-12-20T14:32:58.334Z,21.77
2018-12-20T14:38:01.498Z,25.00
2018-12-20T14:43:04.767Z,23.47
2018-12-20T14:48:09.981Z,20.43
2018-12-20T14:53:13.201Z,23.70
2018-12-20T15:14:40.673Z,22.77
2018-12-20T15:19:43.903Z,23.83
2018-12-20T15:24:47.193Z,23.67
2018-12-20T15:29:50.306Z,20.90
2018-12-20T15:34:53.460Z,20.40
2018-12-20T15:39:56.680Z,21.47
2018-12-20T15:44:59.863Z,26.93
2018-12-20T16:06:27.308Z,23.53
2018-12-20T16:11:30.781Z,19.87
2018-12-20T16:16:34.057Z,20.57
2018-12-20T16:21:37.285Z,21.90
2018-12-20T16:26:40.536Z,21.53
2018-12-20T16:48:08.277Z,23.73
2018-12-20T16:53:11.481Z,22.83
2018-12-20T17:14:39.203Z,18.80
2018-12-20T17:19:42.398Z,21.07
2018-12-20T17:24:45.736Z,24.40
2018-12-20T17:51:41.690Z,22.23
2018-12-20T18:13:09.720Z,19.43
2018-12-20T18:18:12.902Z,18.93
2018-12-20T18:23:16.279Z,21.43
2018-12-20T18:28:19.365Z,20.97
2018-12-20T18:33:22.586Z,23.47
2018-12-20T18:38:25.866Z,16.73
2018-12-20T18:59:53.623Z,22.07
2018-12-20T19:04:56.745Z,17.93
2018-12-20T19:26:24.470Z,18.33
2018-12-20T19:31:27.989Z,18.13
2018-12-20T19:36:31.226Z,15.97
2018-12-20T19:57:59.570Z,19.70
2018-12-20T20:19:27.556Z,18.87
2018-12-20T20:24:30.791Z,16.93
2018-12-20T20:29:33.997Z,20.23
2018-12-20T20:34:37.942Z,14.53
2018-12-20T20:56:05.674Z,14.07
2018-12-20T21:01:08.892Z,17.43
2018-12-20T21:06:12.010Z,19.87
2018-12-20T21:11:15.245Z,14.80
2018-12-20T21:16:18.518Z,15.77
2018-12-20T21:21:21.745Z,15.23
2018-12-20T21:26:24.903Z,17.80
2018-12-20T21:31:28.053Z,15.77
2018-12-20T21:36:31.272Z,18.23
2018-12-20T21:41:34.485Z,16.03
2018-12-20T21:46:37.754Z,14.97
2018-12-20T21:51:40.970Z,16.70
2018-12-20T21:56:44.129Z,17.10
2018-12-20T22:01:47.288Z,14.60
2018-12-20T22:06:50.435Z,14.27
2018-12-20T22:11:53.666Z,16.67
2018-12-20T22:16:56.821Z,14.23
2018-12-20T22:22:00.038Z,13.30
2018-12-20T22:27:03.295Z,16.10
2018-12-20T22:32:06.530Z,15.77
2018-12-20T22:37:09.702Z,15.17
2018-12-20T22:42:12.933Z,15.80
2018-12-20T22:47:16.098Z,15.63
2018-12-20T22:52:19.297Z,14.00
2018-12-20T22:57:22.451Z,12.20
2018-12-20T23:02:25.623Z,13.53
2018-12-20T23:07:28.827Z,13.37
2018-12-20T23:12:32.007Z,12.97
2018-12-20T23:17:35.318Z,12.37
2018-12-20T23:22:38.542Z,14.87
2018-12-20T23:27:41.761Z,13.90
2018-12-20T23:32:44.923Z,12.23
2018-12-20T23:37:48.151Z,13.10
2018-12-20T23:42:51.293Z,13.80
2018-12-20T23:47:54.438Z,12.97
2018-12-20T23:52:57.593Z,13.27
2018-12-20T23:58:00.807Z,12.27
